createdAt,value
2023-03-27T00:00:35.661Z,11.40
2023-03-27T00:03:21.685Z,11.10
2023-03-27T00:06:11.483Z,11.20
2023-03-27T00:08:57.170Z,11.30
2023-03-27T00:11:43.181Z,10.90
2023-03-27T00:14:29.211Z,10.80
2023-03-27T00:17:14.975Z,10.80
2023-03-27T00:20:01.328Z,10.90
2023-03-27T00:22:48.232Z,10.70
2023-03-27T00:25:35.392Z,10.80
2023-03-27T00:28:21.573Z,10.80
2023-03-27T00:31:12.409Z,11.10
2023-03-27T00:33:58.332Z,11.10
2023-03-27T00:36:51.201Z,11.40
2023-03-27T00:39:37.427Z,11.60
2023-03-27T00:42:24.537Z,11.60
2023-03-27T00:45:29.008Z,11.60
2023-03-27T00:48:15.182Z,11.40
2023-03-27T00:51:01.702Z,11.60
2023-03-27T00:53:48.689Z,11.50
2023-03-27T00:56:38.677Z,11.50
2023-03-27T00:59:28.787Z,11.50
2023-03-27T01:02:16.042Z,11.40
2023-03-27T01:05:02.005Z,11.40
2023-03-27T01:08:01.069Z,11.60
2023-03-27T01:11:18.040Z,10.20
2023-03-27T01:14:29.846Z,9.80
2023-03-27T01:17:42.278Z,9.60
2023-03-27T01:21:02.496Z,9.70
2023-03-27T01:24:35.659Z,10.30
2023-03-27T01:28:03.040Z,10.60
2023-03-27T01:31:03.036Z,10.70
2023-03-27T01:34:26.392Z,11.10
2023-03-27T01:37:35.497Z,11.40
2023-03-27T01:40:38.099Z,11.20
2023-03-27T01:43:33.313Z,11.40
2023-03-27T01:46:22.277Z,11.40
2023-03-27T01:49:20.740Z,11.50
2023-03-27T01:52:21.867Z,11.70
2023-03-27T01:55:14.192Z,11.80
2023-03-27T01:58:13.858Z,11.90
2023-03-27T02:01:03.240Z,11.90
2023-03-27T02:03:53.945Z,11.90
2023-03-27T02:06:44.939Z,11.70
2023-03-27T02:09:44.428Z,11.80
2023-03-27T02:12:33.984Z,11.50
2023-03-27T02:15:25.313Z,11.70
2023-03-27T02:18:19.721Z,11.20
2023-03-27T02:21:06.558Z,11.40
2023-03-27T02:23:53.238Z,11.50
2023-03-27T02:26:39.649Z,11.60
2023-03-27T02:29:52.119Z,11.50
2023-03-27T02:32:45.965Z,11.40
2023-03-27T02:36:00.480Z,10.90
2023-03-27T02:39:15.087Z,10.80
2023-03-27T02:42:25.788Z,10.40
2023-03-27T02:45:53.888Z,10.70
2023-03-27T02:48:58.836Z,11.00
2023-03-27T02:51:51.422Z,11.00
2023-03-27T02:54:45.409Z,11.00
2023-03-27T02:57:34.244Z,11.20
2023-03-27T03:00:48.181Z,11.20
2023-03-27T03:03:55.219Z,11.30
2023-03-27T03:07:04.441Z,11.20
2023-03-27T03:09:49.963Z,11.40
2023-03-27T03:12:35.488Z,11.50
2023-03-27T03:15:21.724Z,11.50
2023-03-27T03:18:08.151Z,11.50
2023-03-27T03:20:55.076Z,11.40
2023-03-27T03:23:41.286Z,10.60
2023-03-27T03:26:50.332Z,10.40
2023-03-27T03:29:37.605Z,9.90
2023-03-27T03:32:35.769Z,9.90
2023-03-27T03:35:25.520Z,10.00
2023-03-27T03:38:12.163Z,10.60
2023-03-27T03:41:05.509Z,10.90
2023-03-27T03:43:51.805Z,11.00
2023-03-27T03:46:38.244Z,11.00
2023-03-27T03:49:24.468Z,11.00
2023-03-27T03:52:10.963Z,11.00
2023-03-27T03:54:56.997Z,10.80
2023-03-27T03:57:49.734Z,10.90
2023-03-27T04:00:41.713Z,11.10
2023-03-27T04:03:42.503Z,10.70
2023-03-27T04:06:31.112Z,10.80
2023-03-27T04:09:17.762Z,10.90
2023-03-27T04:12:35.795Z,11.00
2023-03-27T04:15:27.591Z,10.90
2023-03-27T04:18:19.700Z,10.40
2023-03-27T04:21:14.468Z,10.20
2023-03-27T04:24:02.870Z,10.20
2023-03-27T04:27:02.045Z,10.50
2023-03-27T04:29:58.361Z,10.50
2023-03-27T04:32:52.068Z,10.20
2023-03-27T04:36:06.808Z,9.90
2023-03-27T04:39:04.979Z,8.60
2023-03-27T04:41:51.313Z,8.80
2023-03-27T04:44:37.850Z,9.90
2023-03-27T04:47:24.062Z,9.90
2023-03-27T04:50:17.240Z,9.80
2023-03-27T04:53:03.639Z,8.40
2023-03-27T04:55:57.286Z,9.90
2023-03-27T04:58:46.860Z,9.90
2023-03-27T05:01:36.332Z,9.90
2023-03-27T05:04:48.870Z,10.30
2023-03-27T05:07:38.288Z,10.70
2023-03-27T05:10:26.487Z,11.00
2023-03-27T05:13:12.318Z,11.30
2023-03-27T05:15:59.432Z,11.60
2023-03-27T05:18:47.454Z,11.90
2023-03-27T05:21:33.401Z,12.20
2023-03-27T05:24:19.599Z,12.20
2023-03-27T05:27:44.244Z,12.30
2023-03-27T05:30:30.358Z,12.40
2023-03-27T05:33:29.366Z,12.50
2023-03-27T05:36:18.961Z,12.60
2023-03-27T05:39:05.894Z,12.60
2023-03-27T05:41:55.116Z,12.70
2023-03-27T05:44:43.245Z,12.70
2023-03-27T05:47:29.074Z,12.80
2023-03-27T05:50:16.316Z,12.90
2023-03-27T05:53:10.171Z,12.90
2023-03-27T05:56:04.270Z,13.00
2023-03-27T05:58:59.513Z,13.00
2023-03-27T06:01:46.819Z,13.10
2023-03-27T06:04:34.588Z,13.10
2023-03-27T06:07:34.121Z,13.20
2023-03-27T06:10:24.518Z,13.40
2023-03-27T06:13:36.986Z,13.60
2023-03-27T06:16:36.887Z,13.80
2023-03-27T06:19:41.721Z,14.00
2023-03-27T06:22:28.366Z,14.10
2023-03-27T06:25:15.793Z,14.20
2023-03-27T06:28:04.701Z,14.30
2023-03-27T06:30:57.943Z,14.30
2023-03-27T06:33:43.759Z,14.50
2023-03-27T06:36:44.847Z,14.50
2023-03-27T06:39:34.112Z,14.60
2023-03-27T06:42:21.546Z,14.70
2023-03-27T06:45:11.480Z,14.80
2023-03-27T06:48:33.676Z,14.80
2023-03-27T06:51:23.386Z,14.70
2023-03-27T06:54:13.514Z,14.70
2023-03-27T06:57:05.258Z,14.80
2023-03-27T07:00:12.878Z,15.00
2023-03-27T07:03:20.930Z,15.20
2023-03-27T07:06:25.459Z,14.30
2023-03-27T07:09:17.121Z,15.30
2023-03-27T07:12:13.244Z,16.40
2023-03-27T07:15:01.334Z,15.40
2023-03-27T07:18:01.419Z,15.50
2023-03-27T07:20:51.596Z,15.50
2023-03-27T07:23:41.828Z,15.50
2023-03-27T07:26:30.281Z,15.60
2023-03-27T07:29:48.491Z,15.80
2023-03-27T07:32:40.815Z,15.90
2023-03-27T07:35:28.111Z,16.00
2023-03-27T07:38:34.509Z,15.80
2023-03-27T07:41:30.982Z,16.10
2023-03-27T07:44:17.500Z,16.20
2023-03-27T07:47:14.233Z,16.40
2023-03-27T07:50:00.499Z,16.40
2023-03-27T07:52:46.783Z,16.70
2023-03-27T07:55:34.484Z,16.80
2023-03-27T07:58:25.200Z,17.00
2023-03-27T08:01:13.634Z,17.60
2023-03-27T08:04:00.855Z,18.70
2023-03-27T08:06:47.098Z,19.30
2023-03-27T08:09:39.690Z,20.30
2023-03-27T08:12:28.154Z,20.40
2023-03-27T08:15:19.745Z,21.20
2023-03-27T08:18:07.272Z,21.00
2023-03-27T08:20:57.718Z,21.20
2023-03-27T08:23:47.683Z,20.90
2023-03-27T08:26:53.732Z,21.20
2023-03-27T08:29:40.255Z,22.00
2023-03-27T08:32:27.094Z,22.70
2023-03-27T08:35:14.422Z,22.30
2023-03-27T08:38:02.942Z,21.90
2023-03-27T08:41:39.863Z,22.60
2023-03-27T08:44:35.545Z,22.30
2023-03-27T08:47:40.622Z,22.70
2023-03-27T08:50:48.163Z,22.30
2023-03-27T08:53:41.654Z,22.10
2023-03-27T08:56:29.558Z,22.10
2023-03-27T08:59:22.936Z,22.20
2023-03-27T09:02:29.023Z,22.50
2023-03-27T09:05:26.353Z,22.50
2023-03-27T09:08:29.383Z,22.00
2023-03-27T09:11:52.201Z,22.80
2023-03-27T09:15:16.113Z,23.40
2023-03-27T09:18:22.188Z,23.80
2023-03-27T09:21:27.284Z,23.70
2023-03-27T09:24:27.425Z,23.10
2023-03-27T09:27:43.711Z,23.40
2023-03-27T09:30:47.410Z,23.20
2023-03-27T09:33:42.455Z,24.20
2023-03-27T09:36:29.061Z,23.10
2023-03-27T09:39:22.021Z,23.10
2023-03-27T09:42:20.252Z,23.30
2023-03-27T09:48:50.324Z,23.80
2023-03-27T09:51:42.512Z,24.30
2023-03-27T09:54:53.167Z,24.40
2023-03-27T09:57:43.669Z,24.90
2023-03-27T10:00:33.704Z,24.10
2023-03-27T10:03:23.060Z,24.80
2023-03-27T10:06:24.034Z,24.30
2023-03-27T10:09:35.297Z,25.10
2023-03-27T10:12:27.458Z,25.20
2023-03-27T10:15:25.360Z,24.80
2023-03-27T10:18:27.507Z,25.10
2023-03-27T10:21:39.321Z,24.50
2023-03-27T10:24:33.924Z,24.10
2023-03-27T10:27:43.322Z,23.50
2023-03-27T10:31:30.988Z,23.80
2023-03-27T10:34:58.298Z,25.40
2023-03-27T10:38:18.488Z,26.80
2023-03-27T10:41:33.671Z,25.50
2023-03-27T10:44:25.821Z,25.90
2023-03-27T10:47:27.563Z,25.80
2023-03-27T10:50:39.389Z,25.20
2023-03-27T10:53:50.279Z,24.20
2023-03-27T10:57:06.390Z,25.00
2023-03-27T11:00:26.874Z,25.00
2023-03-27T11:03:28.583Z,25.30
2023-03-27T11:06:23.384Z,25.40
2023-03-27T11:09:18.687Z,25.40
2023-03-27T11:12:21.186Z,26.30
2023-03-27T11:15:42.028Z,26.50
2023-03-27T11:19:12.613Z,26.40
2023-03-27T11:22:43.113Z,26.30
2023-03-27T11:25:53.619Z,25.70
2023-03-27T11:28:44.655Z,24.90
2023-03-27T11:31:48.494Z,25.20
2023-03-27T11:35:06.898Z,25.50
2023-03-27T11:38:12.062Z,23.70
2023-03-27T11:41:02.444Z,23.70
2023-03-27T11:43:49.089Z,25.30
2023-03-27T11:47:20.911Z,25.40
2023-03-27T11:50:24.268Z,25.50
2023-03-27T11:53:14.187Z,24.50
2023-03-27T11:56:42.116Z,23.70
2023-03-27T12:00:18.024Z,24.30
2023-03-27T12:03:37.345Z,23.50
2023-03-27T12:06:30.687Z,22.80
2023-03-27T12:09:43.014Z,21.50
2023-03-27T12:13:40.745Z,21.30
2023-03-27T12:16:53.807Z,19.90
2023-03-27T12:20:19.426Z,20.20
2023-03-27T12:23:28.123Z,19.80
2023-03-27T12:26:57.543Z,19.50
2023-03-27T12:30:16.788Z,19.40
2023-03-27T12:33:17.245Z,19.20
2023-03-27T12:36:09.872Z,19.50
2023-03-27T12:38:56.672Z,19.30
2023-03-27T12:41:49.602Z,19.20
2023-03-27T12:45:18.170Z,19.00
2023-03-27T12:48:10.266Z,19.00
2023-03-27T12:51:00.069Z,19.00
2023-03-27T12:53:54.521Z,19.20
2023-03-27T12:56:42.401Z,19.20
2023-03-27T12:59:30.209Z,19.10
2023-03-27T13:02:18.942Z,19.20
2023-03-27T13:05:42.900Z,19.20
2023-03-27T13:09:05.345Z,19.00
2023-03-27T13:12:02.724Z,19.00
2023-03-27T13:14:58.674Z,18.90
2023-03-27T13:18:16.069Z,18.90
2023-03-27T13:21:19.234Z,18.90
2023-03-27T13:24:21.538Z,18.80
2023-03-27T13:27:25.584Z,18.70
2023-03-27T13:30:52.109Z,18.80
2023-03-27T13:34:22.050Z,18.80
2023-03-27T13:37:11.429Z,18.80
2023-03-27T13:40:07.817Z,18.80
2023-03-27T13:43:33.625Z,18.90
2023-03-27T13:46:29.481Z,18.80
2023-03-27T13:49:46.411Z,18.70
2023-03-27T13:52:57.620Z,18.80
2023-03-27T13:56:37.195Z,18.80
2023-03-27T13:59:35.360Z,18.90
2023-03-27T14:03:02.148Z,18.80
2023-03-27T14:06:22.044Z,18.90
2023-03-27T14:09:45.621Z,19.00
2023-03-27T14:12:43.609Z,19.10
2023-03-27T14:16:13.684Z,19.10
2023-03-27T14:19:42.997Z,19.10
2023-03-27T14:22:43.440Z,19.00
2023-03-27T14:25:38.896Z,18.90
2023-03-27T14:28:59.158Z,19.00
2023-03-27T14:32:07.057Z,19.10
2023-03-27T14:35:02.702Z,19.00
2023-03-27T14:38:00.410Z,18.90
2023-03-27T14:40:59.167Z,18.90
2023-03-27T14:44:09.348Z,18.90
2023-03-27T14:47:04.774Z,18.70
2023-03-27T14:49:59.183Z,18.80
2023-03-27T14:53:10.149Z,18.80
2023-03-27T14:56:31.884Z,18.80
2023-03-27T14:59:35.035Z,18.80
2023-03-27T15:02:32.058Z,18.80
2023-03-27T15:05:23.308Z,18.80
2023-03-27T15:08:19.909Z,18.80
2023-03-27T15:11:39.031Z,18.80
2023-03-27T15:14:32.702Z,18.60
2023-03-27T15:17:20.256Z,18.60
2023-03-27T15:20:14.692Z,18.60
2023-03-27T15:23:19.226Z,18.60
2023-03-27T15:26:19.331Z,18.60
2023-03-27T15:29:28.764Z,18.50
2023-03-27T15:32:22.499Z,18.50
2023-03-27T15:35:15.356Z,18.50
2023-03-27T15:38:04.429Z,18.50
2023-03-27T15:41:01.225Z,18.50
2023-03-27T15:43:47.825Z,18.40
2023-03-27T15:46:43.962Z,18.40
2023-03-27T15:49:37.988Z,18.40
2023-03-27T15:52:33.102Z,18.40
2023-03-27T15:55:47.527Z,18.30
2023-03-27T15:59:00.869Z,18.20
2023-03-27T16:01:53.315Z,18.20
2023-03-27T16:04:45.745Z,18.10
2023-03-27T16:07:43.989Z,18.00
2023-03-27T16:10:32.933Z,17.90
2023-03-27T16:13:37.276Z,17.90
2023-03-27T16:16:27.250Z,17.90
2023-03-27T16:19:14.425Z,17.90
2023-03-27T16:22:00.536Z,17.70
2023-03-27T16:24:46.683Z,17.70
2023-03-27T16:27:48.395Z,17.60
2023-03-27T16:30:39.247Z,17.50
2023-03-27T16:33:27.732Z,17.50
2023-03-27T16:36:19.918Z,17.40
2023-03-27T16:39:07.140Z,17.40
2023-03-27T16:41:53.718Z,17.30
2023-03-27T16:44:39.580Z,17.20
2023-03-27T16:47:25.913Z,17.10
2023-03-27T16:50:18.832Z,17.10
2023-03-27T16:53:05.270Z,17.00
2023-03-27T16:55:54.310Z,16.90
2023-03-27T16:58:40.856Z,16.80
2023-03-27T17:01:26.844Z,16.70
2023-03-27T17:04:12.805Z,16.60
2023-03-27T17:06:58.821Z,16.50
2023-03-27T17:09:44.726Z,16.40
2023-03-27T17:12:30.748Z,17.70
2023-03-27T17:15:17.772Z,16.40
2023-03-27T17:18:04.183Z,16.30
2023-03-27T17:20:50.018Z,16.20
2023-03-27T17:23:36.367Z,16.20
2023-03-27T17:26:25.986Z,16.10
2023-03-27T17:29:12.428Z,16.00
2023-03-27T17:32:00.977Z,16.00
2023-03-27T17:34:46.804Z,15.70
2023-03-27T17:37:34.295Z,15.70
2023-03-27T17:40:20.349Z,15.60
2023-03-27T17:43:06.683Z,15.40
2023-03-27T17:45:53.449Z,15.30
2023-03-27T17:48:40.242Z,15.00
2023-03-27T17:51:26.614Z,14.90
2023-03-27T17:54:13.013Z,15.00
2023-03-27T17:56:59.934Z,14.90
2023-03-27T17:59:46.707Z,14.80
2023-03-27T18:02:33.624Z,14.60
2023-03-27T18:05:19.852Z,14.60
2023-03-27T18:08:07.994Z,14.50
2023-03-27T18:10:56.517Z,14.50
2023-03-27T18:13:43.212Z,14.60
2023-03-27T18:16:29.511Z,14.60
2023-03-27T18:19:15.687Z,14.30
2023-03-27T18:22:02.146Z,14.20
2023-03-27T18:24:48.319Z,14.30
2023-03-27T18:27:40.256Z,14.00
2023-03-27T18:30:26.000Z,13.90
2023-03-27T18:33:15.258Z,13.80
2023-03-27T18:36:02.186Z,13.90
2023-03-27T18:38:50.620Z,13.70
2023-03-27T18:41:38.120Z,13.80
2023-03-27T18:44:28.614Z,13.70
2023-03-27T18:47:15.530Z,13.60
2023-03-27T18:50:04.089Z,13.60
2023-03-27T18:52:50.613Z,13.50
2023-03-27T18:55:36.920Z,13.40
2023-03-27T18:58:33.367Z,13.40
2023-03-27T19:01:19.704Z,13.40
2023-03-27T19:04:06.603Z,13.60
2023-03-27T19:06:53.047Z,13.60
2023-03-27T19:09:41.670Z,13.60
2023-03-27T19:12:28.647Z,13.70
2023-03-27T19:15:34.571Z,13.60
2023-03-27T19:18:39.646Z,13.80
2023-03-27T19:21:44.568Z,13.80
2023-03-27T19:24:42.067Z,13.80
2023-03-27T19:27:28.592Z,13.80
2023-03-27T19:30:25.766Z,13.80
2023-03-27T19:33:14.288Z,13.60
2023-03-27T19:36:01.146Z,13.40
2023-03-27T19:38:47.539Z,13.30
2023-03-27T19:41:33.793Z,13.40
2023-03-27T19:44:21.354Z,13.60
2023-03-27T19:47:08.080Z,13.60
2023-03-27T19:49:54.674Z,13.50
2023-03-27T19:53:08.145Z,13.60
2023-03-27T19:55:56.964Z,13.50
2023-03-27T19:58:45.475Z,13.70
2023-03-27T20:01:31.955Z,13.40
2023-03-27T20:04:18.423Z,13.30
2023-03-27T20:07:07.229Z,13.20
2023-03-27T20:09:53.363Z,13.20
2023-03-27T20:12:40.853Z,13.10
2023-03-27T20:15:26.883Z,12.90
2023-03-27T20:18:12.910Z,12.80
2023-03-27T20:21:02.398Z,12.70
2023-03-27T20:23:53.761Z,12.60
2023-03-27T20:26:48.573Z,12.60
2023-03-27T20:29:42.065Z,12.60
2023-03-27T20:32:28.669Z,12.50
2023-03-27T20:35:23.732Z,12.50
2023-03-27T20:38:13.903Z,12.60
2023-03-27T20:41:03.998Z,12.60
2023-03-27T20:43:51.411Z,12.60
2023-03-27T20:46:37.841Z,12.50
2023-03-27T20:52:15.764Z,12.50
2023-03-27T20:55:02.334Z,12.50
2023-03-27T20:57:47.942Z,12.30
2023-03-27T21:00:35.850Z,12.40
2023-03-27T21:03:22.820Z,12.30
2023-03-27T21:06:18.866Z,12.20
2023-03-27T21:09:05.398Z,12.10
2023-03-27T21:11:51.918Z,12.10
2023-03-27T21:14:38.228Z,12.00
2023-03-27T21:17:24.266Z,11.90
2023-03-27T21:20:11.282Z,12.00
2023-03-27T21:22:57.462Z,12.00
2023-03-27T21:25:44.110Z,11.90
2023-03-27T21:28:30.698Z,11.80
2023-03-27T21:31:16.752Z,11.80
2023-03-27T21:34:02.840Z,11.80
2023-03-27T21:36:48.948Z,11.60
2023-03-27T21:39:34.949Z,11.40
2023-03-27T21:42:21.914Z,11.30
2023-03-27T21:45:09.563Z,11.20
2023-03-27T21:47:55.937Z,12.30
2023-03-27T21:50:42.400Z,11.20
2023-03-27T21:53:29.458Z,11.30
2023-03-27T21:56:15.415Z,12.20
2023-03-27T21:59:01.200Z,11.30
2023-03-27T22:01:47.265Z,11.20
2023-03-27T22:04:33.572Z,11.20
2023-03-27T22:07:20.358Z,11.40
2023-03-27T22:10:06.810Z,11.30
2023-03-27T22:12:53.081Z,11.40
2023-03-27T22:15:40.092Z,11.40
2023-03-27T22:18:26.371Z,11.50
2023-03-27T22:21:27.068Z,11.40
2023-03-27T22:24:13.534Z,11.40
2023-03-27T22:26:59.805Z,11.30
2023-03-27T22:29:45.963Z,11.20
2023-03-27T22:32:32.009Z,11.40
2023-03-27T22:35:18.007Z,11.40
2023-03-27T22:38:03.900Z,11.40
2023-03-27T22:40:49.913Z,11.20
2023-03-27T22:43:36.238Z,11.20
2023-03-27T22:46:23.916Z,11.20
2023-03-27T22:49:10.886Z,11.10
2023-03-27T22:51:56.987Z,10.40
2023-03-27T22:54:44.354Z,11.30
2023-03-27T22:57:30.211Z,10.70
2023-03-27T23:00:17.123Z,11.40
2023-03-27T23:03:03.471Z,11.20
2023-03-27T23:05:51.318Z,11.10
2023-03-27T23:08:37.809Z,11.10
2023-03-27T23:11:25.603Z,10.90
2023-03-27T23:14:12.137Z,10.80
2023-03-27T23:16:58.117Z,10.70
2023-03-27T23:19:44.338Z,10.80
2023-03-27T23:22:31.886Z,10.70
2023-03-27T23:25:18.028Z,9.80
2023-03-27T23:28:04.419Z,10.90
2023-03-27T23:31:01.931Z,10.90
2023-03-27T23:33:50.765Z,10.90
2023-03-27T23:36:37.157Z,10.80
2023-03-27T23:39:23.166Z,10.80
2023-03-27T23:42:09.076Z,10.70
2023-03-27T23:44:55.051Z,10.50
2023-03-27T23:47:41.063Z,10.40
2023-03-27T23:50:27.716Z,10.50
2023-03-27T23:53:14.127Z,10.70
2023-03-27T23:56:02.098Z,10.60
2023-03-27T23:58:48.568Z,10.40
